createdAt,value
2019-03-25T00:00:23.740Z,66.59
2019-03-25T00:02:50.598Z,66.86
2019-03-25T00:05:17.472Z,67.01
2019-03-25T00:07:44.337Z,67.02
2019-03-25T00:10:11.433Z,66.96
2019-03-25T00:12:38.424Z,66.88
2019-03-25T00:15:05.430Z,66.64
2019-03-25T00:17:32.312Z,66.54
2019-03-25T00:19:59.296Z,66.59
2019-03-25T00:22:26.266Z,66.49
2019-03-25T00:24:53.153Z,66.56
2019-03-25T00:27:20.118Z,66.56
2019-03-25T00:29:47.028Z,66.50
2019-03-25T00:32:13.985Z,66.61
2019-03-25T00:34:40.862Z,66.52
2019-03-25T00:37:07.807Z,66.65
2019-03-25T00:39:34.682Z,66.60
2019-03-25T00:42:01.665Z,66.71
2019-03-25T00:44:28.680Z,66.77
2019-03-25T00:46:55.605Z,66.77
2019-03-25T00:49:22.589Z,66.77
2019-03-25T00:51:49.447Z,66.87
2019-03-25T00:54:16.412Z,66.93
2019-03-25T00:56:43.293Z,67.02
2019-03-25T00:59:10.181Z,67.00
2019-03-25T01:01:37.150Z,67.02
2019-03-25T01:04:04.069Z,67.02
2019-03-25T01:06:31.035Z,67.01
2019-03-25T01:08:58.001Z,67.01
2019-03-25T01:11:24.873Z,66.86
2019-03-25T01:13:51.845Z,66.85
2019-03-25T01:16:18.728Z,66.76
2019-03-25T01:18:45.594Z,66.68
2019-03-25T01:21:12.472Z,66.72
2019-03-25T01:23:39.353Z,66.62
2019-03-25T01:26:06.228Z,66.56
2019-03-25T01:28:33.204Z,66.64
2019-03-25T01:31:00.182Z,66.57
2019-03-25T01:33:27.058Z,66.59
2019-03-25T01:35:53.859Z,66.57
2019-03-25T01:38:20.720Z,66.45
2019-03-25T01:40:47.589Z,66.36
2019-03-25T01:43:14.473Z,66.39
2019-03-25T01:45:41.348Z,66.41
2019-03-25T01:48:08.210Z,66.34
2019-03-25T01:50:35.092Z,66.30
2019-03-25T01:53:02.050Z,66.42
2019-03-25T01:55:28.920Z,66.37
2019-03-25T01:57:55.889Z,66.32
2019-03-25T02:00:22.760Z,66.31
2019-03-25T02:02:49.649Z,66.20
2019-03-25T02:05:16.628Z,66.22
2019-03-25T02:07:43.605Z,66.18
2019-03-25T02:10:15.080Z,66.24
2019-03-25T02:12:41.960Z,66.19
2019-03-25T02:15:08.927Z,66.14
2019-03-25T02:17:35.813Z,66.18
2019-03-25T02:20:03.119Z,66.16
2019-03-25T02:22:30.166Z,66.21
2019-03-25T02:24:57.170Z,66.23
2019-03-25T02:27:24.118Z,66.32
2019-03-25T02:29:51.032Z,66.34
2019-03-25T02:32:18.007Z,66.33
2019-03-25T02:34:44.984Z,66.33
2019-03-25T02:37:11.962Z,66.38
2019-03-25T02:39:38.932Z,66.44
2019-03-25T02:42:05.914Z,66.42
2019-03-25T02:44:32.803Z,66.55
2019-03-25T02:46:59.773Z,66.70
2019-03-25T02:49:26.648Z,66.57
2019-03-25T02:51:53.508Z,66.81
2019-03-25T02:54:20.486Z,66.83
2019-03-25T02:56:47.358Z,66.91
2019-03-25T02:59:14.230Z,67.02
2019-03-25T03:01:41.117Z,66.99
2019-03-25T03:04:08.003Z,67.25
2019-03-25T03:06:34.890Z,67.31
2019-03-25T03:09:01.761Z,67.45
2019-03-25T03:11:28.736Z,67.54
2019-03-25T03:13:55.610Z,67.58
2019-03-25T03:16:22.571Z,67.64
2019-03-25T03:18:49.543Z,67.75
2019-03-25T03:21:16.510Z,67.68
2019-03-25T03:23:43.388Z,67.72
2019-03-25T03:26:10.330Z,67.79
2019-03-25T03:28:37.212Z,67.90
2019-03-25T03:31:04.184Z,68.00
2019-03-25T03:33:31.372Z,68.10
2019-03-25T03:36:06.360Z,68.23
2019-03-25T03:38:33.265Z,68.41
2019-03-25T03:41:00.228Z,68.61
2019-03-25T03:43:27.237Z,68.75
2019-03-25T03:45:54.210Z,68.91
2019-03-25T03:48:21.165Z,68.92
2019-03-25T03:50:48.027Z,69.01
2019-03-25T03:53:14.984Z,69.21
2019-03-25T03:55:41.846Z,69.27
2019-03-25T03:58:08.722Z,69.42
2019-03-25T04:00:35.610Z,69.64
2019-03-25T04:03:02.474Z,69.79
2019-03-25T04:05:29.349Z,69.92
2019-03-25T04:07:56.221Z,69.92
2019-03-25T04:10:23.206Z,70.02
2019-03-25T04:12:50.064Z,70.00
2019-03-25T04:15:19.822Z,69.95
2019-03-25T04:17:46.697Z,69.98
2019-03-25T04:20:13.565Z,69.95
2019-03-25T04:22:40.446Z,69.87
2019-03-25T04:25:08.843Z,69.88
2019-03-25T04:27:35.805Z,69.96
2019-03-25T04:30:02.690Z,69.91
2019-03-25T04:32:29.671Z,69.94
2019-03-25T04:34:56.544Z,70.00
2019-03-25T04:37:23.423Z,70.04
2019-03-25T04:39:50.386Z,69.97
2019-03-25T04:42:17.366Z,70.03
2019-03-25T04:44:44.334Z,69.97
2019-03-25T04:47:11.202Z,69.83
2019-03-25T04:49:38.082Z,69.87
2019-03-25T04:52:05.081Z,70.02
2019-03-25T04:54:31.972Z,70.09
2019-03-25T04:56:58.847Z,70.34
2019-03-25T04:59:25.740Z,70.31
2019-03-25T05:01:52.680Z,70.27
2019-03-25T05:04:19.578Z,73.14
2019-03-25T05:06:46.453Z,70.49
2019-03-25T05:09:13.355Z,70.08
2019-03-25T05:11:40.320Z,69.49
2019-03-25T05:14:07.192Z,69.53
2019-03-25T05:16:34.148Z,69.49
2019-03-25T05:19:01.012Z,69.49
2019-03-25T05:21:27.883Z,69.37
2019-03-25T05:23:54.758Z,69.08
2019-03-25T05:26:21.643Z,68.99
2019-03-25T05:28:48.619Z,69.20
2019-03-25T05:31:15.521Z,69.26
2019-03-25T05:33:42.384Z,69.30
2019-03-25T05:36:09.239Z,70.53
2019-03-25T05:38:36.119Z,68.80
2019-03-25T05:41:03.086Z,68.46
2019-03-25T05:43:29.963Z,68.27
2019-03-25T05:45:56.839Z,68.15
2019-03-25T05:48:23.727Z,68.25
2019-03-25T05:50:50.603Z,68.21
2019-03-25T05:53:17.480Z,68.31
2019-03-25T05:55:44.353Z,68.42
2019-03-25T05:58:11.317Z,68.32
2019-03-25T06:00:38.424Z,68.44
2019-03-25T06:03:05.284Z,67.79
2019-03-25T06:05:32.280Z,67.55
2019-03-25T06:07:59.242Z,67.66
2019-03-25T06:10:26.144Z,67.49
2019-03-25T06:12:53.030Z,67.00
2019-03-25T06:15:19.921Z,67.42
2019-03-25T06:17:46.784Z,67.14
2019-03-25T06:20:13.787Z,67.20
2019-03-25T06:22:40.656Z,67.07
2019-03-25T06:25:09.844Z,66.72
2019-03-25T06:27:36.898Z,66.64
2019-03-25T06:30:04.493Z,66.76
2019-03-25T06:32:31.362Z,66.14
2019-03-25T06:34:58.269Z,65.46
2019-03-25T06:37:25.235Z,65.64
2019-03-25T06:39:52.109Z,65.74
2019-03-25T06:42:19.094Z,64.91
2019-03-25T06:44:46.060Z,64.72
2019-03-25T06:47:12.958Z,64.20
2019-03-25T06:49:39.823Z,64.14
2019-03-25T06:52:06.790Z,63.89
2019-03-25T06:54:33.670Z,63.73
2019-03-25T06:57:00.549Z,63.94
2019-03-25T06:59:27.527Z,63.74
2019-03-25T07:01:54.508Z,64.31
2019-03-25T07:04:21.526Z,64.37
2019-03-25T07:06:48.399Z,64.58
2019-03-25T07:09:15.390Z,64.72
2019-03-25T07:11:42.259Z,64.80
2019-03-25T07:14:09.222Z,64.70
2019-03-25T07:16:36.086Z,64.87
2019-03-25T07:19:02.980Z,65.15
2019-03-25T07:21:29.932Z,65.18
2019-03-25T07:23:56.858Z,64.63
2019-03-25T07:26:23.828Z,64.21
2019-03-25T07:28:50.812Z,64.40
2019-03-25T07:31:17.785Z,63.66
2019-03-25T07:33:44.682Z,63.11
2019-03-25T07:36:11.551Z,62.96
2019-03-25T07:38:38.421Z,63.26
2019-03-25T07:41:05.319Z,62.86
2019-03-25T07:43:32.281Z,63.06
2019-03-25T07:45:59.249Z,63.27
2019-03-25T07:48:26.155Z,63.09
2019-03-25T07:50:53.070Z,63.26
2019-03-25T07:53:20.064Z,63.09
2019-03-25T07:55:47.068Z,62.61
2019-03-25T07:58:14.039Z,62.39
2019-03-25T08:00:41.014Z,62.79
2019-03-25T08:03:07.981Z,62.05
2019-03-25T08:05:34.882Z,61.44
2019-03-25T08:08:01.840Z,61.48
2019-03-25T08:10:37.745Z,61.63
2019-03-25T08:13:04.864Z,61.12
2019-03-25T08:15:32.263Z,60.59
2019-03-25T08:17:59.327Z,58.68
2019-03-25T08:20:26.355Z,57.93
2019-03-25T08:22:53.416Z,55.73
2019-03-25T08:25:20.447Z,56.43
2019-03-25T08:27:59.118Z,56.02
2019-03-25T08:30:16.296Z,55.66
2019-03-25T08:32:43.332Z,55.06
2019-03-25T08:35:10.356Z,55.05
2019-03-25T08:37:37.399Z,55.57
2019-03-25T08:40:04.438Z,54.29
2019-03-25T08:42:31.463Z,54.25
2019-03-25T08:44:58.528Z,53.34
2019-03-25T08:47:25.556Z,54.18
2019-03-25T08:49:52.568Z,53.50
2019-03-25T08:52:19.604Z,52.59
2019-03-25T08:54:46.648Z,52.78
2019-03-25T08:57:13.678Z,52.78
2019-03-25T08:59:40.807Z,52.51
2019-03-25T09:02:07.839Z,52.14
2019-03-25T09:04:34.783Z,52.34
2019-03-25T09:07:01.826Z,52.65
2019-03-25T09:09:28.861Z,51.87
2019-03-25T09:11:55.880Z,52.35
2019-03-25T09:14:22.907Z,52.65
2019-03-25T09:16:49.958Z,51.93
2019-03-25T09:19:16.963Z,51.91
2019-03-25T09:21:44.026Z,52.21
2019-03-25T09:24:11.043Z,51.44
2019-03-25T09:26:38.062Z,51.02
2019-03-25T09:29:05.084Z,49.62
2019-03-25T09:31:36.831Z,48.95
2019-03-25T09:34:06.968Z,49.00
2019-03-25T09:36:33.991Z,48.60
2019-03-25T09:39:01.029Z,48.89
2019-03-25T09:41:28.531Z,48.62
2019-03-25T09:43:55.595Z,47.60
2019-03-25T09:46:22.620Z,47.58
2019-03-25T09:48:49.657Z,48.34
2019-03-25T09:51:16.697Z,48.15
2019-03-25T09:53:43.746Z,48.32
2019-03-25T09:56:10.796Z,48.54
2019-03-25T09:58:37.817Z,47.93
2019-03-25T10:01:04.908Z,47.78
2019-03-25T10:03:31.936Z,48.56
2019-03-25T10:05:58.993Z,48.99
2019-03-25T10:08:26.042Z,49.07
2019-03-25T10:10:54.803Z,48.97
2019-03-25T10:13:21.830Z,48.86
2019-03-25T10:15:48.886Z,48.72
2019-03-25T10:18:15.922Z,48.22
2019-03-25T10:20:42.991Z,48.00
2019-03-25T10:23:10.045Z,47.66
2019-03-25T10:25:37.086Z,46.87
2019-03-25T10:28:04.114Z,47.23
2019-03-25T10:30:31.132Z,48.04
2019-03-25T10:32:58.212Z,47.76
2019-03-25T10:35:25.242Z,47.83
2019-03-25T10:37:52.292Z,47.02
2019-03-25T10:40:19.139Z,46.03
2019-03-25T10:42:46.193Z,44.74
2019-03-25T10:45:13.219Z,43.03
2019-03-25T10:47:40.257Z,42.76
2019-03-25T10:50:07.305Z,42.57
2019-03-25T10:52:34.335Z,42.93
2019-03-25T10:55:01.381Z,41.52
2019-03-25T10:57:28.388Z,41.17
2019-03-25T10:59:55.412Z,41.20
2019-03-25T11:02:22.476Z,39.64
2019-03-25T11:04:49.536Z,39.99
2019-03-25T11:07:16.653Z,39.13
2019-03-25T11:09:43.736Z,39.53
2019-03-25T11:12:10.809Z,39.05
2019-03-25T11:14:37.942Z,39.14
2019-03-25T11:17:04.959Z,38.13
2019-03-25T11:19:32.005Z,37.61
2019-03-25T11:21:59.026Z,36.32
2019-03-25T11:24:26.063Z,35.60
2019-03-25T11:26:53.109Z,35.50
2019-03-25T11:29:20.125Z,34.72
2019-03-25T11:31:47.147Z,34.55
2019-03-25T11:34:14.190Z,35.14
2019-03-25T11:36:41.202Z,35.03
2019-03-25T11:39:08.257Z,35.80
2019-03-25T11:41:35.293Z,36.20
2019-03-25T11:44:02.318Z,33.55
2019-03-25T11:46:29.366Z,34.23
2019-03-25T11:48:56.386Z,33.50
2019-03-25T11:51:23.435Z,33.63
2019-03-25T11:53:50.449Z,33.18
2019-03-25T11:56:17.501Z,32.78
2019-03-25T11:58:44.522Z,32.52
2019-03-25T12:01:11.543Z,32.39
2019-03-25T12:03:38.637Z,32.02
2019-03-25T12:06:05.666Z,31.72
2019-03-25T12:08:32.692Z,33.08
2019-03-25T12:10:59.728Z,33.89
2019-03-25T12:13:26.776Z,33.22
2019-03-25T12:15:53.790Z,33.98
2019-03-25T12:18:20.832Z,34.41
2019-03-25T12:20:47.857Z,35.23
2019-03-25T12:23:14.906Z,35.73
2019-03-25T12:25:41.933Z,37.09
2019-03-25T12:28:08.986Z,37.33
2019-03-25T12:30:35.991Z,37.67
2019-03-25T12:33:04.236Z,37.83
2019-03-25T12:35:31.498Z,38.39
2019-03-25T12:37:58.524Z,37.52
2019-03-25T12:40:25.547Z,36.13
2019-03-25T12:42:52.588Z,36.97
2019-03-25T12:45:19.628Z,34.92
2019-03-25T12:47:46.648Z,34.04
2019-03-25T12:50:13.712Z,34.50
2019-03-25T12:52:40.754Z,33.59
2019-03-25T12:55:08.386Z,32.67
2019-03-25T12:57:35.570Z,33.26
2019-03-25T13:00:02.967Z,33.14
2019-03-25T13:02:30.028Z,33.91
2019-03-25T13:04:57.043Z,33.95
2019-03-25T13:07:24.059Z,34.79
2019-03-25T13:09:51.113Z,33.89
2019-03-25T13:12:18.154Z,34.83
2019-03-25T13:14:45.245Z,33.03
2019-03-25T13:17:12.261Z,32.06
2019-03-25T13:19:39.293Z,31.42
2019-03-25T13:22:06.320Z,29.14
2019-03-25T13:24:33.350Z,30.00
2019-03-25T13:27:00.369Z,28.02
2019-03-25T13:29:27.384Z,28.74
2019-03-25T13:31:54.425Z,29.42
2019-03-25T13:34:21.466Z,29.21
2019-03-25T13:36:48.490Z,30.20
2019-03-25T13:39:15.514Z,30.04
2019-03-25T13:41:42.590Z,29.16
2019-03-25T13:44:09.689Z,29.99
2019-03-25T13:46:36.742Z,29.12
2019-03-25T13:49:03.769Z,29.90
2019-03-25T13:51:30.791Z,30.39
2019-03-25T13:53:57.822Z,29.97
2019-03-25T13:56:24.837Z,30.14
2019-03-25T13:58:51.898Z,30.97
2019-03-25T14:01:18.929Z,32.58
2019-03-25T14:03:45.997Z,33.94
2019-03-25T14:06:13.015Z,35.64
2019-03-25T14:08:40.076Z,39.78
2019-03-25T14:11:07.111Z,44.91
2019-03-25T14:13:34.156Z,50.06
2019-03-25T14:16:01.186Z,52.74
2019-03-25T14:18:28.219Z,54.71
2019-03-25T14:20:55.174Z,55.56
2019-03-25T14:23:22.227Z,57.47
2019-03-25T14:25:49.261Z,57.50
2019-03-25T14:28:16.327Z,57.35
2019-03-25T14:30:43.609Z,56.24
2019-03-25T14:33:10.610Z,55.10
2019-03-25T14:35:37.629Z,54.20
2019-03-25T14:38:04.646Z,55.05
2019-03-25T14:40:31.683Z,54.42
2019-03-25T14:42:58.723Z,54.21
2019-03-25T14:45:26.733Z,52.65
2019-03-25T14:47:53.987Z,50.81
2019-03-25T14:50:21.065Z,50.66
2019-03-25T14:52:48.509Z,51.00
2019-03-25T14:55:17.228Z,51.59
2019-03-25T14:57:44.251Z,53.35
2019-03-25T15:00:11.328Z,56.17
2019-03-25T15:02:38.400Z,59.31
2019-03-25T15:05:05.445Z,60.97
2019-03-25T15:07:32.480Z,62.02
2019-03-25T15:09:59.526Z,61.84
2019-03-25T15:12:26.545Z,62.88
2019-03-25T15:14:53.573Z,63.78
2019-03-25T15:17:20.656Z,63.23
2019-03-25T15:19:47.697Z,64.52
2019-03-25T15:22:14.731Z,65.44
2019-03-25T15:24:41.763Z,66.49
2019-03-25T15:27:08.823Z,67.04
2019-03-25T15:29:35.879Z,67.54
2019-03-25T15:32:02.898Z,67.00
2019-03-25T15:34:29.955Z,66.89
2019-03-25T15:36:56.989Z,66.89
2019-03-25T15:39:24.059Z,66.32
2019-03-25T15:41:54.716Z,66.82
2019-03-25T15:44:21.747Z,66.11
2019-03-25T15:46:55.697Z,66.28
2019-03-25T15:49:17.656Z,67.37
2019-03-25T15:51:44.683Z,65.65
2019-03-25T15:54:11.751Z,65.28
2019-03-25T15:56:38.784Z,64.25
2019-03-25T15:59:05.860Z,63.30
2019-03-25T16:01:33.027Z,61.86
2019-03-25T16:04:00.056Z,59.91
2019-03-25T16:06:27.124Z,58.55
2019-03-25T16:08:54.154Z,57.42
2019-03-25T16:11:21.232Z,56.97
2019-03-25T16:13:48.260Z,56.93
2019-03-25T16:16:15.332Z,56.92
2019-03-25T16:18:42.408Z,56.90
2019-03-25T16:21:09.452Z,56.87
2019-03-25T16:23:36.714Z,57.30
2019-03-25T16:26:04.313Z,57.91
2019-03-25T16:28:31.431Z,57.74
2019-03-25T16:30:59.266Z,57.84
2019-03-25T16:33:26.504Z,57.83
2019-03-25T16:35:53.569Z,58.53
2019-03-25T16:38:20.641Z,58.22
2019-03-25T16:40:47.689Z,57.92
2019-03-25T16:43:14.705Z,57.32
2019-03-25T16:45:41.774Z,57.12
2019-03-25T16:48:08.802Z,56.74
2019-03-25T16:50:35.819Z,56.53
2019-03-25T16:53:02.882Z,56.72
2019-03-25T16:55:29.935Z,57.28
2019-03-25T16:57:57.015Z,58.65
2019-03-25T17:00:27.548Z,60.38
2019-03-25T17:02:52.893Z,61.86
2019-03-25T17:05:19.945Z,63.33
2019-03-25T17:07:46.980Z,64.73
2019-03-25T17:10:14.105Z,65.46
2019-03-25T17:12:41.131Z,66.04
2019-03-25T17:15:08.174Z,66.60
2019-03-25T17:17:35.264Z,67.22
2019-03-25T17:20:02.304Z,67.45
2019-03-25T17:22:29.335Z,67.72
2019-03-25T17:24:56.351Z,67.98
2019-03-25T17:27:23.432Z,68.00
2019-03-25T17:29:50.447Z,67.95
2019-03-25T17:32:17.506Z,67.94
2019-03-25T17:34:47.629Z,68.19
2019-03-25T17:37:14.679Z,68.19
2019-03-25T17:39:41.712Z,68.18
2019-03-25T17:42:08.762Z,68.38
2019-03-25T17:44:35.783Z,69.90
2019-03-25T17:47:02.835Z,68.02
2019-03-25T17:49:29.993Z,69.04
2019-03-25T17:51:57.043Z,67.53
2019-03-25T17:54:24.064Z,65.01
2019-03-25T17:56:51.091Z,65.78
2019-03-25T17:59:18.140Z,64.65
2019-03-25T18:01:45.205Z,62.20
2019-03-25T18:04:12.300Z,63.70
2019-03-25T18:06:39.335Z,65.27
2019-03-25T18:09:07.271Z,66.39
2019-03-25T18:11:34.317Z,66.44
2019-03-25T18:14:01.396Z,67.14
2019-03-25T18:16:28.460Z,67.87
2019-03-25T18:18:55.515Z,68.12
2019-03-25T18:21:22.583Z,68.19
2019-03-25T18:23:49.585Z,68.75
2019-03-25T18:26:16.664Z,68.94
2019-03-25T18:28:43.629Z,69.20
2019-03-25T18:31:10.680Z,69.33
2019-03-25T18:33:37.732Z,69.40
2019-03-25T18:36:04.759Z,69.78
2019-03-25T18:38:31.790Z,70.25
2019-03-25T18:40:58.851Z,69.84
2019-03-25T18:43:25.907Z,69.47
2019-03-25T18:45:52.949Z,69.13
2019-03-25T18:48:19.907Z,67.68
2019-03-25T18:50:46.945Z,66.97
2019-03-25T18:53:14.001Z,66.88
2019-03-25T18:55:41.025Z,66.88
2019-03-25T18:58:08.076Z,67.16
2019-03-25T19:00:35.122Z,67.26
2019-03-25T19:03:02.171Z,67.53
2019-03-25T19:05:29.254Z,68.04
2019-03-25T19:07:56.281Z,68.21
2019-03-25T19:10:26.635Z,68.61
2019-03-25T19:12:53.686Z,68.91
2019-03-25T19:15:20.753Z,69.18
2019-03-25T19:17:47.792Z,69.28
2019-03-25T19:20:14.855Z,69.64
2019-03-25T19:22:41.932Z,70.20
2019-03-25T19:25:13.769Z,70.23
2019-03-25T19:27:41.359Z,70.07
2019-03-25T19:30:08.608Z,70.46
2019-03-25T19:32:35.690Z,70.96
2019-03-25T19:35:02.757Z,71.38
2019-03-25T19:37:29.799Z,71.81
2019-03-25T19:39:56.848Z,72.37
2019-03-25T19:42:23.893Z,72.66
2019-03-25T19:44:50.992Z,72.90
2019-03-25T19:47:18.034Z,72.92
2019-03-25T19:49:45.110Z,73.27
2019-03-25T19:52:12.152Z,73.34
2019-03-25T19:54:39.240Z,73.69
2019-03-25T19:57:06.362Z,73.70
2019-03-25T19:59:33.379Z,74.01
2019-03-25T20:02:00.433Z,73.92
2019-03-25T20:04:27.501Z,74.07
2019-03-25T20:06:54.558Z,74.38
2019-03-25T20:09:21.620Z,74.49
2019-03-25T20:11:48.627Z,74.71
2019-03-25T20:14:15.744Z,74.90
2019-03-25T20:16:42.732Z,74.80
2019-03-25T20:19:09.829Z,75.08
2019-03-25T20:21:36.872Z,75.01
2019-03-25T20:24:03.969Z,75.30
2019-03-25T20:26:31.023Z,75.37
2019-03-25T20:28:58.063Z,75.53
2019-03-25T20:31:25.077Z,75.40
2019-03-25T20:33:52.191Z,75.75
2019-03-25T20:36:19.229Z,75.61
2019-03-25T20:38:49.235Z,75.61
2019-03-25T20:41:15.278Z,75.36
2019-03-25T20:43:42.301Z,75.46
2019-03-25T20:46:09.369Z,75.61
2019-03-25T20:48:36.416Z,75.76
2019-03-25T20:51:03.439Z,75.96
2019-03-25T20:53:30.469Z,75.99
2019-03-25T20:55:57.610Z,75.89
2019-03-25T20:58:24.652Z,76.07
2019-03-25T21:00:52.385Z,76.03
2019-03-25T21:03:19.393Z,76.09
2019-03-25T21:05:46.459Z,76.09
2019-03-25T21:08:13.495Z,76.00
2019-03-25T21:10:40.517Z,75.92
2019-03-25T21:13:07.691Z,75.81
2019-03-25T21:15:34.732Z,75.72
2019-03-25T21:18:01.819Z,75.64
2019-03-25T21:20:28.812Z,75.59
2019-03-25T21:22:55.915Z,75.57
2019-03-25T21:25:23.007Z,75.61
2019-03-25T21:27:50.041Z,75.58
2019-03-25T21:30:17.124Z,75.66
2019-03-25T21:32:45.482Z,75.63
2019-03-25T21:35:19.203Z,75.51
2019-03-25T21:37:46.373Z,75.33
2019-03-25T21:40:15.493Z,75.25
2019-03-25T21:42:42.948Z,75.24
2019-03-25T21:45:10.035Z,75.25
2019-03-25T21:47:37.070Z,75.23
2019-03-25T21:50:04.159Z,75.36
2019-03-25T21:52:31.217Z,75.53
2019-03-25T21:54:58.267Z,75.61
2019-03-25T21:57:25.305Z,75.97
2019-03-25T21:59:52.372Z,76.10
2019-03-25T22:02:19.376Z,75.98
2019-03-25T22:04:46.412Z,76.07
2019-03-25T22:07:15.734Z,76.22
2019-03-25T22:09:42.756Z,76.27
2019-03-25T22:12:09.817Z,76.19
2019-03-25T22:14:36.866Z,76.26
2019-03-25T22:17:03.874Z,76.23
2019-03-25T22:19:30.944Z,76.24
2019-03-25T22:21:58.041Z,76.13
2019-03-25T22:24:25.096Z,75.81
2019-03-25T22:26:52.134Z,75.59
2019-03-25T22:29:19.208Z,75.53
2019-03-25T22:31:46.238Z,75.46
2019-03-25T22:34:13.278Z,75.57
2019-03-25T22:36:40.316Z,75.50
2019-03-25T22:39:19.634Z,75.61
2019-03-25T22:41:46.646Z,75.76
2019-03-25T22:44:13.690Z,75.61
2019-03-25T22:46:40.718Z,75.76
2019-03-25T22:49:07.766Z,75.75
2019-03-25T22:51:34.779Z,75.77
2019-03-25T22:54:01.813Z,75.94
2019-03-25T22:56:28.844Z,75.98
2019-03-25T22:58:55.892Z,75.87
2019-03-25T23:01:23.029Z,75.64
2019-03-25T23:03:50.074Z,75.70
2019-03-25T23:06:17.108Z,75.62
2019-03-25T23:08:44.136Z,75.43
2019-03-25T23:11:11.523Z,75.43
2019-03-25T23:13:38.548Z,75.22
2019-03-25T23:16:13.068Z,75.18
2019-03-25T23:18:40.115Z,75.04
2019-03-25T23:21:07.138Z,74.96
2019-03-25T23:23:34.165Z,74.68
2019-03-25T23:26:01.215Z,74.76
2019-03-25T23:28:28.319Z,74.69
2019-03-25T23:30:55.359Z,74.82
2019-03-25T23:33:22.374Z,75.01
2019-03-25T23:35:49.389Z,74.92
2019-03-25T23:38:16.296Z,74.92
2019-03-25T23:40:43.332Z,74.75
2019-03-25T23:43:10.355Z,74.68
2019-03-25T23:45:37.405Z,74.79
2019-03-25T23:48:04.489Z,74.87
2019-03-25T23:50:31.549Z,74.81
2019-03-25T23:52:58.570Z,74.96
2019-03-25T23:55:25.619Z,75.03
2019-03-25T23:57:52.640Z,75.08
